Time;durP1;ratioP1;P1;durP2;ratioP2;P2;SDS_P1;SDS_P2;PMS_P1;PMS_P2;Temp;Humidity;BMP_temperature;BMP_pressure;BME280_temperature;BME280_humidity;BME280_pressure;Samples;Min_cycle;Max_cycle;Signal;HPM_P1;HPM_P2
2022/10/25 00:02:16;;;;;;;48.05;25.50;;;12.40;99.90;;;;;;5050022;28;20052;-64
2022/10/25 00:04:44;;;;;;;46.60;26.38;;;12.40;99.90;;;;;;5046583;28;20045;-63
2022/10/25 00:07:11;;;;;;;54.72;29.30;;;12.40;99.90;;;;;;5050267;28;20067;-67
2022/10/25 00:09:38;;;;;;;48.75;25.95;;;12.40;99.90;;;;;;5048143;28;20048;-65
2022/10/25 00:12:06;;;;;;;40.40;25.52;;;12.40;99.90;;;;;;5038070;28;20136;-70
2022/10/25 00:14:34;;;;;;;48.50;24.58;;;12.40;99.90;;;;;;5038010;28;20057;-63
2022/10/25 00:17:01;;;;;;;45.30;25.35;;;12.50;99.90;;;;;;5040947;28;20067;-68
2022/10/25 00:19:28;;;;;;;50.47;26.67;;;12.50;99.90;;;;;;5041961;28;20056;-63
2022/10/25 00:21:54;;;;;;;46.05;25.52;;;12.50;99.90;;;;;;5040353;28;20518;-63
2022/10/25 00:24:21;;;;;;;51.60;24.35;;;12.50;99.90;;;;;;5038491;28;20052;-77
2022/10/25 00:26:48;;;;;;;44.00;24.70;;;12.50;99.90;;;;;;5039589;28;20049;-64
2022/10/25 00:29:16;;;;;;;42.83;23.85;;;12.50;99.90;;;;;;5043102;28;20037;-63
2022/10/25 00:31:43;;;;;;;46.63;25.42;;;12.50;99.90;;;;;;5044835;28;20057;-63
2022/10/25 00:34:10;;;;;;;39.33;23.90;;;12.50;99.90;;;;;;5048300;28;20450;-62
2022/10/25 00:36:37;;;;;;;52.22;23.63;;;12.50;99.90;;;;;;5044042;28;20264;-68
2022/10/25 00:39:04;;;;;;;43.10;24.05;;;12.50;99.90;;;;;;5051137;28;20411;-68
2022/10/25 00:41:33;;;;;;;37.80;23.00;;;12.50;99.90;;;;;;5045627;28;20103;-63
2022/10/25 00:44:37;;;;;;;39.83;21.63;;;12.50;99.90;;;;;;5038114;28;20049;-63
2022/10/25 00:47:13;;;;;;;39.60;22.15;;;12.50;99.90;;;;;;5043497;28;20053;-64
2022/10/25 00:49:41;;;;;;;38.45;21.15;;;12.50;99.90;;;;;;5040384;28;20589;-64
2022/10/25 00:52:09;;;;;;;40.42;20.05;;;12.50;99.90;;;;;;5049808;28;20045;-66
2022/10/25 00:54:43;;;;;;;42.83;22.75;;;12.50;99.90;;;;;;5045153;28;20051;-66
2022/10/25 00:57:18;;;;;;;41.88;22.80;;;12.50;99.90;;;;;;5042532;28;20438;-66
2022/10/25 00:59:46;;;;;;;42.55;24.15;;;12.50;99.90;;;;;;5041326;28;20049;-62
2022/10/25 01:02:15;;;;;;;41.55;21.83;;;12.50;99.90;;;;;;5043575;28;20387;-65
2022/10/25 01:04:43;;;;;;;37.65;20.02;;;12.50;99.90;;;;;;5041583;28;21131;-65
2022/10/25 01:07:10;;;;;;;37.15;22.75;;;12.50;99.90;;;;;;5049002;28;20049;-64
2022/10/25 01:09:38;;;;;;;45.88;22.85;;;12.40;99.90;;;;;;5044789;28;20061;-70
2022/10/25 01:12:05;;;;;;;38.25;22.50;;;12.40;99.90;;;;;;5047226;28;20075;-66
2022/10/25 01:14:39;;;;;;;34.10;19.45;;;12.40;99.90;;;;;;5040914;28;20057;-64
2022/10/25 01:17:12;;;;;;;43.70;23.30;;;12.40;99.90;;;;;;5044225;28;20045;-63
2022/10/25 01:19:45;;;;;;;33.17;19.95;;;12.40;99.90;;;;;;5037778;28;20058;-70
2022/10/25 01:22:37;;;;;;;40.92;20.67;;;12.40;99.90;;;;;;5043451;28;20045;-67
2022/10/25 01:25:23;;;;;;;35.17;22.23;;;12.40;99.90;;;;;;5043849;28;20041;-67
2022/10/25 01:28:08;;;;;;;36.33;20.75;;;12.40;99.90;;;;;;5039104;28;20049;-70
2022/10/25 01:30:55;;;;;;;31.17;19.52;;;12.40;99.90;;;;;;5039321;28;20127;-66
2022/10/25 01:33:38;;;;;;;30.15;18.40;;;12.40;99.90;;;;;;5039782;28;20052;-64
2022/10/25 01:36:10;;;;;;;37.90;19.60;;;12.40;99.90;;;;;;5039108;28;20073;-68
2022/10/25 01:38:49;;;;;;;25.55;16.75;;;12.40;99.90;;;;;;5043947;28;20102;-63
2022/10/25 01:41:34;;;;;;;30.55;17.13;;;12.30;99.90;;;;;;5038209;28;20932;-65
2022/10/25 01:44:31;;;;;;;29.55;17.30;;;12.30;99.90;;;;;;5044648;28;20053;-64
2022/10/25 01:47:14;;;;;;;23.17;14.73;;;12.30;99.90;;;;;;5038580;28;20132;-71
2022/10/25 01:49:59;;;;;;;24.77;15.23;;;12.20;99.90;;;;;;5042636;28;20084;-63
2022/10/25 01:52:26;;;;;;;20.08;14.38;;;12.20;99.90;;;;;;5039664;28;20123;-63
2022/10/25 01:54:53;;;;;;;19.48;13.10;;;12.20;99.90;;;;;;5041886;28;20675;-63
2022/10/25 01:57:39;;;;;;;24.05;13.63;;;12.20;99.90;;;;;;5045573;28;20048;-70
2022/10/25 02:00:10;;;;;;;20.92;13.35;;;12.20;99.90;;;;;;5045017;28;20056;-65
2022/10/25 02:03:08;;;;;;;17.33;12.40;;;12.20;99.90;;;;;;5037434;28;20490;-67
2022/10/25 02:06:03;;;;;;;25.85;14.82;;;12.20;99.90;;;;;;5042016;28;20069;-64
2022/10/25 02:08:41;;;;;;;21.55;14.57;;;12.20;99.90;;;;;;5040173;28;20140;-66
2022/10/25 02:11:21;;;;;;;21.00;13.52;;;12.20;99.90;;;;;;5044135;28;20048;-64
2022/10/25 02:13:54;;;;;;;;;;;12.20;99.90;;;;;;5042257;28;20041;-65
2022/10/25 02:16:25;;;;;;;18.05;11.77;;;12.20;99.90;;;;;;5045468;28;19928;-66
2022/10/25 02:19:02;;;;;;;20.30;12.68;;;12.20;99.90;;;;;;5047085;28;20049;-63
2022/10/25 02:21:32;;;;;;;16.98;12.18;;;12.30;99.90;;;;;;5045711;28;20099;-69
2022/10/25 02:24:02;;;;;;;;;;;12.20;99.90;;;;;;5045598;28;20048;-67
2022/10/25 02:26:29;;;;;;;20.03;12.53;;;12.30;99.90;;;;;;5050542;28;19924;-65
2022/10/25 02:28:57;;;;;;;20.55;12.50;;;12.20;99.90;;;;;;5043560;28;20135;-62
2022/10/25 02:31:25;;;;;;;22.60;11.90;;;12.20;99.90;;;;;;5047802;28;20192;-65
2022/10/25 02:33:52;;;;;;;19.77;13.30;;;12.20;99.90;;;;;;5045485;28;20043;-66
2022/10/25 02:36:22;;;;;;;21.15;14.35;;;12.20;99.90;;;;;;5040560;28;20219;-65
2022/10/25 02:38:51;;;;;;;34.20;12.25;;;12.20;99.90;;;;;;5042839;28;20039;-63
2022/10/25 02:41:19;;;;;;;20.35;12.40;;;12.20;99.90;;;;;;5045495;28;20059;-63
2022/10/25 02:43:46;;;;;;;21.98;13.68;;;12.30;99.90;;;;;;5051193;28;20053;-62
2022/10/25 02:46:17;;;;;;;20.80;12.02;;;12.30;99.90;;;;;;5055932;28;20072;-67
2022/10/25 02:48:45;;;;;;;21.45;12.80;;;12.30;99.90;;;;;;5045583;28;20052;-69
2022/10/25 02:51:12;;;;;;;22.42;13.43;;;12.30;99.90;;;;;;5045445;28;20116;-64
2022/10/25 02:53:40;;;;;;;26.98;14.30;;;12.30;99.90;;;;;;5042245;28;20045;-68
2022/10/25 02:56:10;;;;;;;19.65;12.93;;;12.40;99.90;;;;;;5050033;28;20051;-62
2022/10/25 02:58:40;;;;;;;16.67;11.60;;;12.40;99.90;;;;;;5040444;28;20049;-65
2022/10/25 03:01:08;;;;;;;21.33;12.75;;;12.40;99.90;;;;;;5049627;28;20045;-67
2022/10/25 03:03:35;;;;;;;20.98;15.15;;;12.40;99.90;;;;;;5045592;28;20731;-64
2022/10/25 03:06:03;;;;;;;20.70;13.45;;;12.40;99.90;;;;;;5046919;28;20400;-63
2022/10/25 03:08:30;;;;;;;22.63;13.48;;;12.40;99.90;;;;;;5049896;28;20123;-65
2022/10/25 03:10:57;;;;;;;19.25;12.13;;;12.40;99.90;;;;;;5046750;28;20140;-65
2022/10/25 03:13:24;;;;;;;21.73;14.25;;;12.40;99.90;;;;;;5054698;28;20287;-68
2022/10/25 03:15:51;;;;;;;21.55;14.93;;;12.40;99.90;;;;;;5040402;28;20048;-64
2022/10/25 03:18:18;;;;;;;25.50;12.82;;;12.40;99.90;;;;;;5043324;28;20376;-67
2022/10/25 03:20:45;;;;;;;21.40;12.20;;;12.40;99.90;;;;;;5040884;28;20076;-65
2022/10/25 03:23:11;;;;;;;23.50;13.88;;;12.40;99.90;;;;;;5038348;28;20165;-69
2022/10/25 03:25:39;;;;;;;24.13;13.05;;;12.40;99.90;;;;;;5044689;28;20049;-69
2022/10/25 03:28:07;;;;;;;21.60;14.60;;;12.40;99.90;;;;;;5041381;28;20051;-64
2022/10/25 03:30:34;;;;;;;19.13;12.38;;;12.30;99.90;;;;;;5043246;28;20045;-71
2022/10/25 03:33:01;;;;;;;20.35;12.68;;;12.30;99.90;;;;;;5043984;28;20119;-65
2022/10/25 03:35:28;;;;;;;22.42;12.73;;;12.30;99.90;;;;;;5044003;28;20041;-62
2022/10/25 03:37:55;;;;;;;15.77;12.45;;;12.30;99.90;;;;;;5041628;28;20140;-68
2022/10/25 03:40:22;;;;;;;24.75;13.60;;;12.30;99.90;;;;;;5044506;28;20049;-65
2022/10/25 03:42:49;;;;;;;21.38;13.48;;;12.30;99.90;;;;;;5040375;28;20052;-67
2022/10/25 03:45:16;;;;;;;23.20;12.73;;;12.30;99.90;;;;;;5043045;28;20088;-67
2022/10/25 03:47:43;;;;;;;21.50;12.75;;;12.20;99.90;;;;;;5044005;28;20148;-63
2022/10/25 03:50:11;;;;;;;21.40;12.88;;;12.20;99.90;;;;;;5050220;28;20052;-65
2022/10/25 03:52:38;;;;;;;19.98;12.77;;;12.20;99.90;;;;;;5045795;28;20061;-64
2022/10/25 03:55:06;;;;;;;21.80;13.25;;;12.20;99.90;;;;;;5047416;28;20041;-69
2022/10/25 03:57:33;;;;;;;20.05;10.52;;;12.10;99.90;;;;;;5051569;28;20053;-62
2022/10/25 04:00:00;;;;;;;19.50;11.65;;;12.10;99.90;;;;;;5047654;28;20147;-67
2022/10/25 04:02:37;;;;;;;17.70;11.57;;;12.10;99.90;;;;;;5043605;28;20049;-63
2022/10/25 04:05:05;;;;;;;13.18;10.63;;;12.20;99.90;;;;;;5044962;28;20136;-62
2022/10/25 04:07:32;;;;;;;19.63;11.80;;;12.10;99.90;;;;;;5041852;28;20068;-62
2022/10/25 04:09:59;;;;;;;16.35;10.52;;;12.20;99.90;;;;;;5037761;28;20140;-63
2022/10/25 04:12:25;;;;;;;27.50;14.45;;;12.20;99.90;;;;;;5043287;28;20047;-67
2022/10/25 04:14:52;;;;;;;15.82;10.20;;;12.20;99.90;;;;;;5044561;28;20152;-63
2022/10/25 04:17:19;;;;;;;19.05;11.25;;;12.10;99.90;;;;;;5042981;28;20136;-69
2022/10/25 04:19:46;;;;;;;22.33;10.52;;;12.10;99.90;;;;;;5040591;28;20045;-63
2022/10/25 04:22:13;;;;;;;18.38;11.63;;;12.10;99.90;;;;;;5044231;28;20045;-65
2022/10/25 04:24:40;;;;;;;16.40;11.30;;;12.10;99.90;;;;;;5039479;28;20131;-65
2022/10/25 04:27:06;;;;;;;20.58;9.93;;;12.10;99.90;;;;;;5037681;28;20140;-62
2022/10/25 04:29:33;;;;;;;13.45;9.85;;;12.10;99.90;;;;;;5040926;28;20167;-66
2022/10/25 04:32:00;;;;;;;20.10;9.48;;;12.10;99.90;;;;;;5038885;28;20464;-66
2022/10/25 04:34:27;;;;;;;18.10;10.13;;;12.10;99.90;;;;;;5036964;28;20057;-64
2022/10/25 04:36:54;;;;;;;17.33;10.73;;;12.10;99.90;;;;;;5039300;28;20498;-66
2022/10/25 04:39:21;;;;;;;22.35;10.10;;;12.00;99.90;;;;;;5039120;28;20084;-72
2022/10/25 04:41:48;;;;;;;17.30;9.70;;;12.00;99.90;;;;;;5038784;28;20037;-64
2022/10/25 04:44:15;;;;;;;24.27;10.10;;;12.00;99.90;;;;;;5036539;28;20138;-62
2022/10/25 04:46:42;;;;;;;18.50;10.25;;;12.00;99.90;;;;;;5037503;28;20041;-65
2022/10/25 04:49:14;;;;;;;20.42;10.93;;;12.10;99.90;;;;;;5043946;28;20041;-63
2022/10/25 04:51:41;;;;;;;15.18;9.85;;;12.10;99.90;;;;;;5045179;28;20467;-64
2022/10/25 04:54:10;;;;;;;15.38;9.85;;;12.00;99.90;;;;;;5041753;28;20037;-63
2022/10/25 04:56:37;;;;;;;15.63;9.73;;;12.10;99.90;;;;;;5043152;28;20131;-65
2022/10/25 04:59:04;;;;;;;19.50;9.45;;;12.00;99.90;;;;;;5040351;28;20041;-64
2022/10/25 05:01:31;;;;;;;12.30;8.77;;;12.10;99.90;;;;;;5048216;28;20048;-65
2022/10/25 05:03:58;;;;;;;18.17;10.77;;;12.00;99.90;;;;;;5052604;28;20053;-63
2022/10/25 05:06:26;;;;;;;23.02;9.30;;;12.00;99.90;;;;;;5045172;28;20047;-66
2022/10/25 05:08:54;;;;;;;11.75;8.07;;;12.10;99.90;;;;;;5037919;28;20415;-64
2022/10/25 05:11:25;;;;;;;11.35;8.38;;;12.00;99.90;;;;;;5044894;28;20045;-67
2022/10/25 05:13:51;;;;;;;21.40;10.07;;;12.00;99.90;;;;;;5038537;28;20052;-68
2022/10/25 05:16:22;;;;;;;24.05;9.68;;;12.00;99.90;;;;;;5052386;28;20067;-65
2022/10/25 05:18:53;;;;;;;19.20;8.52;;;11.90;99.90;;;;;;5043327;28;20403;-67
2022/10/25 05:21:21;;;;;;;21.48;9.45;;;12.00;99.90;;;;;;5044113;28;20162;-66
2022/10/25 05:23:48;;;;;;;15.77;8.88;;;11.90;99.90;;;;;;5042847;28;20420;-63
2022/10/25 05:26:18;;;;;;;15.45;9.65;;;11.90;99.90;;;;;;5041793;28;20368;-63
2022/10/25 05:28:47;;;;;;;24.40;10.25;;;11.90;99.90;;;;;;5038198;28;20478;-68
2022/10/25 05:31:15;;;;;;;12.70;9.60;;;11.80;99.90;;;;;;5041865;28;20700;-63
2022/10/25 05:33:45;;;;;;;13.52;7.88;;;11.80;99.90;;;;;;5038533;28;20438;-67
2022/10/25 05:36:13;;;;;;;17.02;8.20;;;11.80;99.90;;;;;;5043222;28;20045;-64
2022/10/25 05:38:40;;;;;;;12.75;8.88;;;11.80;99.90;;;;;;5037575;28;20048;-64
2022/10/25 05:41:10;;;;;;;25.38;9.07;;;11.90;99.90;;;;;;5043430;28;20254;-62
2022/10/25 05:43:37;;;;;;;16.50;9.95;;;11.90;99.90;;;;;;5044235;28;20672;-63
2022/10/25 05:46:07;;;;;;;17.92;11.23;;;11.90;99.90;;;;;;5040616;28;20060;-63
2022/10/25 05:48:35;;;;;;;14.70;8.90;;;11.90;99.90;;;;;;5038483;28;20121;-63
2022/10/25 05:51:13;;;;;;;17.63;9.45;;;11.90;99.90;;;;;;5040695;28;20196;-64
2022/10/25 05:54:01;;;;;;;15.95;6.72;;;11.90;99.90;;;;;;5041494;28;20044;-64
2022/10/25 05:56:30;;;;;;;16.27;8.40;;;11.80;99.90;;;;;;5041727;28;20552;-64
2022/10/25 05:58:57;;;;;;;13.27;8.77;;;11.90;99.90;;;;;;5043274;28;20055;-66
2022/10/25 06:01:25;;;;;;;16.98;7.22;;;11.80;99.90;;;;;;5039248;28;20502;-67
2022/10/25 06:03:54;;;;;;;14.38;7.35;;;11.80;99.90;;;;;;5041304;28;20144;-65
2022/10/25 06:06:22;;;;;;;12.02;6.60;;;11.90;99.90;;;;;;5042092;28;20139;-68
2022/10/25 06:08:49;;;;;;;11.30;6.93;;;11.90;99.90;;;;;;5044340;28;20412;-62
2022/10/25 06:11:18;;;;;;;8.60;6.13;;;11.90;99.90;;;;;;5041222;28;20060;-62
2022/10/25 06:13:45;;;;;;;13.77;6.47;;;11.90;99.90;;;;;;5043176;28;20139;-66
2022/10/25 06:16:15;;;;;;;15.48;7.38;;;11.90;99.90;;;;;;5041619;28;20490;-66
2022/10/25 06:18:42;;;;;;;13.35;6.72;;;11.90;99.90;;;;;;5037398;28;20530;-66
2022/10/25 06:21:13;;;;;;;12.13;6.35;;;12.00;99.90;;;;;;5042303;28;20055;-63
2022/10/25 06:23:41;;;;;;;12.13;6.05;;;11.90;99.90;;;;;;5037642;28;20048;-63
2022/10/25 06:26:11;;;;;;;15.25;6.30;;;11.90;99.90;;;;;;5043963;28;20211;-65
2022/10/25 06:28:38;;;;;;;9.52;5.53;;;12.00;99.90;;;;;;5040395;28;20147;-73
2022/10/25 06:31:10;;;;;;;18.40;6.63;;;12.00;99.90;;;;;;5044372;28;20483;-72
2022/10/25 06:33:37;;;;;;;12.02;5.90;;;12.00;99.90;;;;;;5040557;28;20106;-63
2022/10/25 06:36:06;;;;;;;9.65;5.63;;;12.00;99.90;;;;;;5035951;28;20075;-70
2022/10/25 06:38:33;;;;;;;14.90;7.05;;;12.00;99.90;;;;;;5036009;28;20063;-64
2022/10/25 06:41:02;;;;;;;9.05;6.82;;;12.00;99.90;;;;;;5037804;28;20880;-64
2022/10/25 06:43:30;;;;;;;10.73;5.20;;;12.00;99.90;;;;;;5042074;28;20073;-68
2022/10/25 06:45:57;;;;;;;6.72;4.93;;;12.00;99.90;;;;;;5040735;28;20049;-63
2022/10/25 06:48:24;;;;;;;9.27;4.85;;;12.00;99.90;;;;;;5036936;28;20080;-66
2022/10/25 06:51:05;;;;;;;10.60;4.53;;;12.00;99.90;;;;;;5040938;28;20717;-66
2022/10/25 06:53:32;;;;;;;15.40;5.15;;;12.00;99.90;;;;;;5043116;28;20048;-64
2022/10/25 06:56:04;;;;;;;15.85;4.78;;;12.00;99.90;;;;;;5042737;28;20156;-66
2022/10/25 06:58:34;;;;;;;11.30;5.22;;;12.00;99.90;;;;;;5039384;28;20041;-63
2022/10/25 07:01:02;;;;;;;10.75;5.20;;;12.00;99.90;;;;;;5035972;28;20045;-63
2022/10/25 07:03:33;;;;;;;13.48;4.50;;;12.10;99.90;;;;;;5037313;28;20048;-64
2022/10/25 07:06:04;;;;;;;9.07;4.38;;;12.10;99.90;;;;;;5035264;28;20058;-65
2022/10/25 07:08:37;;;;;;;15.57;5.40;;;12.10;99.90;;;;;;5037752;28;20049;-70
2022/10/25 07:11:05;;;;;;;12.80;6.15;;;12.10;99.90;;;;;;5039374;28;20398;-68
2022/10/25 07:13:33;;;;;;;8.55;3.83;;;12.10;99.90;;;;;;5046297;28;20048;-66
2022/10/25 07:16:04;;;;;;;8.90;3.83;;;12.10;99.90;;;;;;5038205;28;20045;-69
2022/10/25 07:18:32;;;;;;;11.82;6.00;;;12.10;99.90;;;;;;5035844;28;20045;-62
2022/10/25 07:21:07;;;;;;;8.70;3.85;;;12.10;99.90;;;;;;5031468;28;20055;-64
2022/10/25 07:23:40;;;;;;;12.48;4.70;;;12.10;99.90;;;;;;5039755;28;20060;-64
2022/10/25 07:26:20;;;;;;;8.18;4.32;;;12.10;99.90;;;;;;5034280;28;20055;-63
2022/10/25 07:28:48;;;;;;;17.83;6.00;;;12.10;99.90;;;;;;5036425;28;20053;-65
2022/10/25 07:31:18;;;;;;;10.15;4.00;;;12.10;99.90;;;;;;5041862;28;20044;-63
2022/10/25 07:33:46;;;;;;;10.38;4.15;;;12.10;99.90;;;;;;5041467;28;20454;-65
2022/10/25 07:36:13;;;;;;;9.73;4.47;;;12.10;99.90;;;;;;5039248;28;20067;-63
2022/10/25 07:38:40;;;;;;;12.82;5.40;;;12.10;99.90;;;;;;5036832;28;20055;-62
2022/10/25 07:41:08;;;;;;;10.63;5.18;;;12.10;99.90;;;;;;5041556;28;20140;-63
2022/10/25 07:43:35;;;;;;;8.20;4.15;;;12.10;99.90;;;;;;5044316;28;20375;-62
2022/10/25 07:46:03;;;;;;;12.60;5.13;;;12.10;99.90;;;;;;5045040;28;20041;-65
2022/10/25 07:48:30;;;;;;;11.15;3.53;;;12.20;99.90;;;;;;5041705;28;20091;-64
2022/10/25 07:50:57;;;;;;;5.60;3.90;;;12.20;99.90;;;;;;5041555;28;20059;-62
2022/10/25 07:53:23;;;;;;;12.68;5.15;;;12.30;99.90;;;;;;5042937;28;20063;-68
2022/10/25 07:55:56;;;;;;;12.23;3.97;;;12.30;99.90;;;;;;5047099;28;20056;-64
2022/10/25 07:58:23;;;;;;;9.82;4.53;;;12.40;99.90;;;;;;5040889;28;20068;-69
2022/10/25 08:00:50;;;;;;;5.47;3.35;;;12.40;99.90;;;;;;5045530;28;20041;-63
2022/10/25 08:03:17;;;;;;;15.55;5.13;;;12.50;99.90;;;;;;5045425;28;20508;-65
2022/10/25 08:05:46;;;;;;;9.63;3.40;;;12.50;99.90;;;;;;5042600;28;20044;-68
2022/10/25 08:08:14;;;;;;;9.60;3.60;;;12.60;99.90;;;;;;5043975;28;20055;-62
2022/10/25 08:10:42;;;;;;;11.70;5.03;;;12.60;99.90;;;;;;5036804;28;20051;-63
2022/10/25 08:13:09;;;;;;;9.30;3.40;;;12.70;99.90;;;;;;5041214;28;20052;-63
2022/10/25 08:15:37;;;;;;;13.65;4.63;;;12.70;99.90;;;;;;5044216;28;20045;-65
2022/10/25 08:18:06;;;;;;;11.05;3.50;;;12.80;99.90;;;;;;5048978;28;20330;-62
2022/10/25 08:20:33;;;;;;;8.13;4.00;;;12.90;99.90;;;;;;5043359;28;20063;-63
2022/10/25 08:23:20;;;;;;;12.43;3.58;;;12.90;99.90;;;;;;5047520;28;20487;-67
2022/10/25 08:25:46;;;;;;;14.25;4.10;;;12.90;99.90;;;;;;5044241;28;20075;-64
2022/10/25 08:28:13;;;;;;;6.65;3.63;;;13.00;99.90;;;;;;5047289;28;20055;-64
2022/10/25 08:30:41;;;;;;;6.35;4.10;;;13.00;99.90;;;;;;5041590;28;20128;-69
2022/10/25 08:33:08;;;;;;;12.15;4.57;;;13.00;99.90;;;;;;5040252;28;20057;-70
2022/10/25 08:35:38;;;;;;;14.68;3.15;;;13.10;99.90;;;;;;5045095;28;21593;-63
2022/10/25 08:38:05;;;;;;;12.07;2.88;;;13.10;99.90;;;;;;5048582;28;20060;-65
2022/10/25 08:40:55;;;;;;;14.02;3.83;;;13.10;99.90;;;;;;5042008;28;20041;-72
2022/10/25 08:43:25;;;;;;;;;;;13.10;99.90;;;;;;5047088;28;21409;-63
2022/10/25 08:45:52;;;;;;;7.57;2.97;;;13.10;99.90;;;;;;5047086;28;19931;-66
2022/10/25 08:48:25;;;;;;;16.38;3.75;;;13.00;99.90;;;;;;5041824;28;20056;-66
2022/10/25 08:50:56;;;;;;;7.15;3.00;;;13.00;99.90;;;;;;5051774;28;20456;-66
2022/10/25 08:53:38;;;;;;;15.30;3.70;;;13.00;99.90;;;;;;5046312;28;20380;-65
2022/10/25 08:56:09;;;;;;;10.80;3.28;;;13.00;99.90;;;;;;5046102;28;20135;-63
2022/10/25 08:58:48;;;;;;;11.50;3.25;;;13.00;99.90;;;;;;5039820;28;20487;-68
2022/10/25 09:01:24;;;;;;;13.65;3.10;;;13.00;99.90;;;;;;5039495;28;20052;-67
2022/10/25 09:03:51;;;;;;;6.30;2.97;;;13.00;99.90;;;;;;5040595;28;20115;-64
2022/10/25 09:06:29;;;;;;;8.48;3.42;;;12.90;99.90;;;;;;5045683;28;20049;-65
2022/10/25 09:09:28;;;;;;;9.25;2.67;;;13.00;99.90;;;;;;5042501;28;20102;-65
2022/10/25 09:12:25;;;;;;;11.32;4.47;;;13.00;99.90;;;;;;5040485;28;20152;-65
2022/10/25 09:15:12;;;;;;;7.10;3.53;;;13.00;99.90;;;;;;5041597;28;20592;-64
2022/10/25 09:17:45;;;;;;;5.00;2.88;;;13.10;99.90;;;;;;5031303;28;21269;-63
2022/10/25 09:20:25;;;;;;;7.78;3.70;;;13.10;99.90;;;;;;5042943;28;20053;-67
2022/10/25 09:23:01;;;;;;;8.88;3.70;;;13.20;99.90;;;;;;5043158;28;20048;-64
2022/10/25 09:25:48;;;;;;;8.25;2.88;;;13.10;99.90;;;;;;5039991;28;20444;-67
2022/10/25 09:28:29;;;;;;;8.73;3.88;;;13.10;99.90;;;;;;5042778;28;20061;-64
2022/10/25 09:30:58;;;;;;;15.63;3.80;;;13.20;99.90;;;;;;5022622;28;20066;-64
2022/10/25 09:33:29;;;;;;;15.93;6.28;;;13.20;99.90;;;;;;5041951;28;20052;-71
2022/10/25 09:35:58;;;;;;;12.10;3.25;;;13.20;99.90;;;;;;5039372;28;20103;-63
2022/10/25 09:38:39;;;;;;;8.70;3.72;;;13.20;99.90;;;;;;5048114;28;20047;-67
2022/10/25 09:41:53;;;;;;;11.20;4.28;;;13.20;99.90;;;;;;5041647;28;20435;-65
2022/10/25 09:44:43;;;;;;;6.28;3.08;;;13.20;99.90;;;;;;4988881;28;20046;-73
2022/10/25 09:47:15;;;;;;;6.30;3.00;;;13.30;99.90;;;;;;5044901;28;20058;-67
2022/10/25 09:49:45;;;;;;;9.30;3.15;;;13.20;99.90;;;;;;5045562;28;20094;-66
2022/10/25 09:52:30;;;;;;;14.37;3.23;;;13.20;99.90;;;;;;5043117;28;20398;-70
2022/10/25 09:55:31;;;;;;;12.23;3.22;;;13.10;99.90;;;;;;5030638;28;20277;-62
2022/10/25 09:57:59;;;;;;;13.25;3.53;;;13.10;99.90;;;;;;5040524;28;20045;-65
2022/10/25 10:00:27;;;;;;;14.88;3.72;;;13.00;99.90;;;;;;5036502;28;20068;-67
2022/10/25 10:02:54;;;;;;;7.85;3.13;;;13.00;99.90;;;;;;5046295;28;20471;-68
2022/10/25 10:05:22;;;;;;;14.98;3.28;;;13.00;99.90;;;;;;5044524;28;20133;-64
2022/10/25 10:07:49;;;;;;;12.52;5.18;;;13.00;99.90;;;;;;5044619;28;20520;-69
2022/10/25 10:10:31;;;;;;;13.00;4.15;;;12.90;99.90;;;;;;5047380;28;20110;-63
2022/10/25 10:13:10;;;;;;;8.88;3.30;;;12.90;99.90;;;;;;5044261;28;20510;-67
2022/10/25 10:16:00;;;;;;;7.18;3.20;;;12.90;99.90;;;;;;5045437;28;20532;-67
2022/10/25 10:18:29;;;;;;;10.93;3.33;;;12.90;99.90;;;;;;5033945;28;20049;-67
2022/10/25 10:21:15;;;;;;;10.18;5.07;;;12.90;99.90;;;;;;5046165;28;20056;-64
2022/10/25 10:23:48;;;;;;;7.50;3.83;;;12.90;99.90;;;;;;5047762;28;20053;-64
2022/10/25 10:26:30;;;;;;;10.73;3.55;;;12.80;99.90;;;;;;5038037;28;20063;-65
2022/10/25 10:29:05;;;;;;;8.15;4.07;;;12.80;99.90;;;;;;5046972;28;20049;-67
2022/10/25 10:31:41;;;;;;;7.65;4.10;;;12.70;99.90;;;;;;5041042;28;20092;-63
2022/10/25 10:34:30;;;;;;;6.40;3.20;;;12.70;99.90;;;;;;5043661;28;20041;-67
2022/10/25 10:37:06;;;;;;;16.58;3.83;;;12.70;99.90;;;;;;5042986;28;20041;-64
2022/10/25 10:39:33;;;;;;;12.88;5.10;;;12.80;99.90;;;;;;5037498;28;20052;-68
2022/10/25 10:42:13;;;;;;;6.97;3.60;;;12.80;99.90;;;;;;5042701;28;20044;-67
2022/10/25 10:44:58;;;;;;;16.35;5.20;;;12.80;99.90;;;;;;5037596;28;20054;-67
2022/10/25 10:47:29;;;;;;;9.80;3.63;;;12.80;99.90;;;;;;5037285;28;20049;-68
2022/10/25 10:49:57;;;;;;;10.98;4.20;;;12.80;99.90;;;;;;5038629;28;20111;-65
2022/10/25 10:52:35;;;;;;;7.90;3.88;;;12.90;99.90;;;;;;5037866;28;20053;-70
2022/10/25 10:55:02;;;;;;;14.65;6.30;;;12.90;99.90;;;;;;5045609;28;20052;-65
2022/10/25 10:57:32;;;;;;;10.98;4.50;;;12.90;99.90;;;;;;5035731;28;20055;-64
2022/10/25 11:00:01;;;;;;;12.82;4.43;;;13.00;99.90;;;;;;5037655;28;20045;-66
2022/10/25 11:02:40;;;;;;;9.77;3.88;;;13.00;99.90;;;;;;5032765;28;20045;-65
2022/10/25 11:05:23;;;;;;;13.25;5.28;;;13.10;99.90;;;;;;5043341;28;20037;-70
2022/10/25 11:07:54;;;;;;;7.90;3.97;;;13.10;99.90;;;;;;5039823;28;20143;-65
2022/10/25 11:10:32;;;;;;;8.57;3.22;;;13.20;99.90;;;;;;5039671;28;20462;-63
2022/10/25 11:13:17;;;;;;;9.32;4.05;;;13.20;99.90;;;;;;5037739;28;20455;-68
2022/10/25 11:15:53;;;;;;;13.15;4.53;;;13.40;99.90;;;;;;5038529;28;20073;-63
2022/10/25 11:18:34;;;;;;;13.82;5.68;;;13.50;99.90;;;;;;5041099;28;20049;-64
2022/10/25 11:21:24;;;;;;;6.07;3.60;;;13.60;99.90;;;;;;5038458;28;20080;-71
2022/10/25 11:23:51;;;;;;;33.13;4.75;;;13.60;99.90;;;;;;5032433;28;20075;-65
2022/10/25 11:26:23;;;;;;;13.32;4.75;;;13.70;99.90;;;;;;5042972;28;20048;-64
2022/10/25 11:29:04;;;;;;;7.25;3.20;;;13.80;99.90;;;;;;5042680;28;20052;-67
2022/10/25 11:31:49;;;;;;;;;;;13.90;99.90;;;;;;5042128;28;20040;-64
2022/10/25 11:35:03;;;;;;;16.55;3.83;;;13.90;99.90;;;;;;5044761;28;19958;-71
2022/10/25 11:37:45;;;;;;;10.93;3.50;;;13.90;99.90;;;;;;5026845;28;20053;-64
2022/10/25 11:40:21;;;;;;;7.85;3.60;;;13.90;99.90;;;;;;5043508;28;20159;-70
2022/10/25 11:43:14;;;;;;;8.25;3.90;;;13.80;99.90;;;;;;5038931;28;20436;-73
2022/10/25 11:45:43;;;;;;;13.25;3.60;;;13.80;99.90;;;;;;5025628;28;20048;-64
2022/10/25 11:48:19;;;;;;;6.43;4.07;;;13.80;99.90;;;;;;5045917;28;20071;-72
2022/10/25 11:51:11;;;;;;;10.13;4.20;;;13.80;99.90;;;;;;5042518;28;20047;-67
2022/10/25 11:54:04;;;;;;;7.50;3.88;;;13.80;99.90;;;;;;5038803;28;20055;-65
2022/10/25 11:56:36;;;;;;;7.60;4.18;;;13.70;99.90;;;;;;5039278;28;20366;-73
2022/10/25 11:59:03;;;;;;;6.13;3.33;;;13.70;99.90;;;;;;5041411;28;20064;-66
2022/10/25 12:01:45;;;;;;;11.60;3.97;;;13.70;99.90;;;;;;5041231;28;20488;-66
2022/10/25 12:04:24;;;;;;;9.95;3.83;;;13.70;99.90;;;;;;5042746;28;20063;-64
2022/10/25 12:07:30;;;;;;;9.43;2.97;;;13.70;99.90;;;;;;5049559;28;20041;-64
2022/10/25 12:10:20;;;;;;;16.52;3.38;;;13.60;99.90;;;;;;5036585;28;20136;-63
2022/10/25 12:13:01;;;;;;;9.68;3.10;;;13.60;99.90;;;;;;5046742;28;20037;-64
2022/10/25 12:15:45;;;;;;;13.77;4.45;;;13.60;99.90;;;;;;5042946;28;20400;-68
2022/10/25 12:18:42;;;;;;;11.38;4.60;;;13.60;99.90;;;;;;5047328;28;20506;-69
2022/10/25 12:21:15;;;;;;;10.25;3.35;;;13.60;99.90;;;;;;5045747;28;20073;-66
2022/10/25 12:23:48;;;;;;;10.13;4.43;;;13.60;99.90;;;;;;5042278;28;20415;-65
2022/10/25 12:26:24;;;;;;;17.50;5.47;;;13.70;99.90;;;;;;5035819;28;20144;-69
2022/10/25 12:28:51;;;;;;;8.50;4.07;;;13.70;99.90;;;;;;5040616;28;20041;-64
2022/10/25 12:31:26;;;;;;;14.18;5.65;;;13.70;99.90;;;;;;5036871;28;20041;-66
2022/10/25 12:33:53;;;;;;;9.98;4.05;;;13.60;99.90;;;;;;5045835;28;20049;-69
2022/10/25 12:37:01;;;;;;;10.60;4.97;;;13.60;99.90;;;;;;5047029;28;20045;-65
2022/10/25 12:39:38;;;;;;;8.43;4.20;;;13.60;99.90;;;;;;5040328;28;20172;-65
2022/10/25 12:42:34;;;;;;;11.32;4.05;;;13.60;99.90;;;;;;5041357;28;20090;-64
2022/10/25 12:45:08;;;;;;;8.05;4.75;;;13.60;99.90;;;;;;5042731;28;20474;-64
2022/10/25 12:48:05;;;;;;;9.73;4.40;;;13.50;99.90;;;;;;5046698;28;20052;-64
2022/10/25 12:50:50;;;;;;;12.32;4.60;;;13.50;99.90;;;;;;5035706;28;20045;-63
2022/10/25 12:53:26;;;;;;;11.55;4.72;;;13.60;99.90;;;;;;5040758;28;20114;-69
2022/10/25 12:56:05;;;;;;;8.15;4.03;;;13.60;99.90;;;;;;5040519;28;20075;-69
2022/10/25 12:58:57;;;;;;;7.10;3.63;;;13.60;99.90;;;;;;5038557;28;20045;-70
2022/10/25 13:01:47;;;;;;;9.02;3.58;;;13.70;99.90;;;;;;5045178;28;20049;-66
2022/10/25 13:04:33;;;;;;;17.67;4.35;;;13.80;99.90;;;;;;5043373;28;20053;-68
2022/10/25 13:07:03;;;;;;;5.75;3.10;;;13.80;99.90;;;;;;5036867;28;20351;-70